createdAt,value
2022-11-27T00:01:18.019Z,99645.00
2022-11-27T00:03:44.670Z,99648.47
2022-11-27T00:06:16.255Z,99644.94
2022-11-27T00:08:44.114Z,99645.78
2022-11-27T00:11:13.529Z,99650.38
2022-11-27T00:13:40.679Z,99642.28
2022-11-27T00:16:08.040Z,99639.94
2022-11-27T00:18:34.913Z,99638.81
2022-11-27T00:21:13.738Z,99640.72
2022-11-27T00:23:40.852Z,99638.81
2022-11-27T00:26:07.763Z,99637.88
2022-11-27T00:28:35.152Z,99629.06
2022-11-27T00:31:07.508Z,99628.25
2022-11-27T00:33:34.633Z,99624.34
2022-11-27T00:36:06.048Z,99620.88
2022-11-27T00:38:38.329Z,99613.16
2022-11-27T00:41:07.707Z,99616.72
2022-11-27T00:43:43.479Z,99611.13
2022-11-27T00:46:12.951Z,99611.19
2022-11-27T00:48:39.565Z,99607.66
2022-11-27T00:51:08.465Z,99609.78
2022-11-27T00:53:35.431Z,99603.97
2022-11-27T00:56:02.252Z,99607.28
2022-11-27T00:58:30.164Z,99605.78
2022-11-27T01:00:58.851Z,99593.38
2022-11-27T01:03:26.445Z,99598.03
2022-11-27T01:05:52.949Z,99592.66
2022-11-27T01:08:20.271Z,99595.03
2022-11-27T01:10:55.189Z,99591.91
2022-11-27T01:13:30.553Z,99601.25
2022-11-27T01:16:00.901Z,99601.25
2022-11-27T01:18:27.773Z,99589.75
2022-11-27T01:20:55.220Z,99589.16
2022-11-27T01:23:22.795Z,99592.78
2022-11-27T01:25:49.838Z,99598.91
2022-11-27T01:28:17.038Z,99596.91
2022-11-27T01:30:43.490Z,99601.38
2022-11-27T01:33:09.974Z,99594.44
2022-11-27T01:35:36.449Z,99586.34
2022-11-27T01:38:03.532Z,99580.50
2022-11-27T01:40:30.048Z,99585.03
2022-11-27T01:42:56.579Z,99588.03
2022-11-27T01:45:23.205Z,99581.78
2022-11-27T01:47:57.316Z,99579.97
2022-11-27T01:50:31.406Z,99579.72
2022-11-27T01:53:02.988Z,99585.06
2022-11-27T01:55:53.912Z,99591.84
2022-11-27T01:58:25.383Z,99594.69
2022-11-27T02:00:52.143Z,99599.75
2022-11-27T02:03:18.952Z,99600.03
2022-11-27T02:05:45.787Z,99600.97
2022-11-27T02:08:16.198Z,99611.41
2022-11-27T02:11:05.281Z,99600.66
2022-11-27T02:13:58.936Z,99603.44
2022-11-27T02:16:52.885Z,99595.97
2022-11-27T02:19:55.463Z,99583.41
2022-11-27T02:22:46.946Z,99577.34
2022-11-27T02:25:28.562Z,99567.94
2022-11-27T02:28:29.077Z,99553.56
2022-11-27T02:31:05.813Z,99552.41
2022-11-27T02:33:35.298Z,99557.31
2022-11-27T02:36:09.624Z,99545.66
2022-11-27T02:38:44.557Z,99546.34
2022-11-27T02:41:24.819Z,99548.38
2022-11-27T02:43:53.175Z,99548.53
2022-11-27T02:46:20.742Z,99547.03
2022-11-27T02:48:55.417Z,99545.72
2022-11-27T02:51:39.067Z,99544.97
2022-11-27T02:54:10.037Z,99546.00
2022-11-27T02:56:38.640Z,99542.75
2022-11-27T02:59:09.297Z,99539.81
2022-11-27T03:01:52.054Z,99546.53
2022-11-27T03:04:22.954Z,99530.63
2022-11-27T03:06:54.402Z,99525.59
2022-11-27T03:09:28.744Z,99523.06
2022-11-27T03:11:55.874Z,99520.91
2022-11-27T03:14:24.743Z,99511.13
2022-11-27T03:17:05.912Z,99506.75
2022-11-27T03:19:43.007Z,99509.22
2022-11-27T03:22:10.918Z,99510.25
2022-11-27T03:24:37.632Z,99504.91
2022-11-27T03:27:05.293Z,99502.69
2022-11-27T03:29:41.234Z,99504.50
2022-11-27T03:32:07.889Z,99496.94
2022-11-27T03:34:35.385Z,99497.69
2022-11-27T03:37:02.384Z,99490.75
2022-11-27T03:39:30.276Z,99497.69
2022-11-27T03:42:24.492Z,99495.00
2022-11-27T03:45:14.140Z,99479.72
2022-11-27T03:48:06.609Z,99483.69
2022-11-27T03:50:57.500Z,99477.06
2022-11-27T03:54:01.166Z,99481.72
2022-11-27T03:56:39.009Z,99478.34
2022-11-27T03:59:25.791Z,99478.75
2022-11-27T04:01:52.384Z,99480.25
2022-11-27T04:04:18.948Z,99476.53
2022-11-27T04:06:45.797Z,99477.72
2022-11-27T04:09:12.413Z,99467.88
2022-11-27T04:11:38.909Z,99469.56
2022-11-27T04:14:05.839Z,99471.84
2022-11-27T04:16:32.403Z,99467.34
2022-11-27T04:18:58.945Z,99464.22
2022-11-27T04:21:25.436Z,99470.59
2022-11-27T04:23:51.895Z,99463.00
2022-11-27T04:26:18.371Z,99477.34
2022-11-27T04:28:44.833Z,99466.97
2022-11-27T04:31:11.353Z,99460.16
2022-11-27T04:33:38.024Z,99452.16
2022-11-27T04:36:04.842Z,99442.06
2022-11-27T04:38:31.343Z,99447.03
2022-11-27T04:40:57.982Z,99449.19
2022-11-27T04:43:24.465Z,99448.28
2022-11-27T04:45:50.995Z,99455.72
2022-11-27T04:48:17.553Z,99461.03
2022-11-27T04:50:44.026Z,99455.31
2022-11-27T04:53:10.474Z,99452.19
2022-11-27T04:55:36.968Z,99453.84
2022-11-27T04:58:03.692Z,99460.53
2022-11-27T05:00:30.220Z,99456.38
2022-11-27T05:02:56.821Z,99460.53
2022-11-27T05:05:23.438Z,99460.75
2022-11-27T05:07:50.040Z,99468.13
2022-11-27T05:10:16.652Z,99459.56
2022-11-27T05:12:43.175Z,99456.66
2022-11-27T05:15:09.829Z,99447.81
2022-11-27T05:17:36.356Z,99460.97
2022-11-27T05:20:03.614Z,99463.81
2022-11-27T05:22:30.139Z,99470.19
2022-11-27T05:24:56.595Z,99478.41
2022-11-27T05:27:23.152Z,99469.69
2022-11-27T05:29:49.636Z,99467.66
2022-11-27T05:32:16.195Z,99451.44
2022-11-27T05:34:42.941Z,99450.53
2022-11-27T05:37:09.685Z,99446.91
2022-11-27T05:39:36.242Z,99436.25
2022-11-27T05:42:02.722Z,99430.41
2022-11-27T05:44:29.357Z,99440.13
2022-11-27T05:46:57.117Z,99444.53
2022-11-27T05:49:23.641Z,99436.31
2022-11-27T05:51:51.642Z,99433.44
2022-11-27T05:54:19.138Z,99420.47
2022-11-27T05:56:45.780Z,99431.41
2022-11-27T05:59:12.634Z,99431.63
2022-11-27T06:01:39.357Z,99426.84
2022-11-27T06:04:05.923Z,99419.13
2022-11-27T06:06:32.432Z,99430.38
2022-11-27T06:08:58.909Z,99443.59
2022-11-27T06:11:25.557Z,99428.03
2022-11-27T06:13:52.029Z,99423.09
2022-11-27T06:16:21.515Z,99423.44
2022-11-27T06:18:52.468Z,99417.59
2022-11-27T06:21:19.591Z,99421.81
2022-11-27T06:23:46.400Z,99404.34
2022-11-27T06:26:27.704Z,99395.28
2022-11-27T06:28:55.826Z,99396.47
2022-11-27T06:31:26.320Z,99388.31
2022-11-27T06:33:54.224Z,99384.63
2022-11-27T06:36:21.974Z,99379.22
2022-11-27T06:38:48.526Z,99377.94
2022-11-27T06:41:21.078Z,99385.69
2022-11-27T06:43:48.008Z,99384.91
2022-11-27T06:46:16.973Z,99387.63
2022-11-27T06:48:45.397Z,99388.88
2022-11-27T06:51:14.342Z,99377.47
2022-11-27T06:53:41.551Z,99369.28
2022-11-27T06:56:10.484Z,99372.19
2022-11-27T06:58:37.473Z,99364.50
2022-11-27T07:01:07.390Z,99360.31
2022-11-27T07:03:34.517Z,99358.94
2022-11-27T07:06:03.400Z,99352.53
2022-11-27T07:08:30.532Z,99340.09
2022-11-27T07:11:04.911Z,99341.06
2022-11-27T07:13:31.757Z,99347.88
2022-11-27T07:16:06.896Z,99347.25
2022-11-27T07:18:39.001Z,99362.72
2022-11-27T07:21:05.772Z,99361.06
2022-11-27T07:23:32.605Z,99365.72
2022-11-27T07:25:59.464Z,99368.19
2022-11-27T07:28:26.265Z,99358.72
2022-11-27T07:30:56.844Z,99351.91
2022-11-27T07:33:25.382Z,99356.41
2022-11-27T07:36:03.762Z,99360.16
2022-11-27T07:38:30.319Z,99361.53
2022-11-27T07:41:00.396Z,99367.38
2022-11-27T07:43:27.572Z,99357.78
2022-11-27T07:45:54.266Z,99347.22
2022-11-27T07:48:20.875Z,99347.09
2022-11-27T07:50:47.444Z,99344.78
2022-11-27T07:53:14.034Z,99336.88
2022-11-27T07:55:41.905Z,99330.66
2022-11-27T07:58:08.818Z,99315.41
2022-11-27T08:00:36.002Z,99318.13
2022-11-27T08:03:03.262Z,99318.72
2022-11-27T08:05:30.461Z,99326.78
2022-11-27T08:08:00.017Z,99326.50
2022-11-27T08:10:26.979Z,99324.53
2022-11-27T08:12:53.549Z,99322.66
2022-11-27T08:15:20.149Z,99336.72
2022-11-27T08:17:46.766Z,99340.38
2022-11-27T08:20:13.442Z,99345.50
2022-11-27T08:22:40.196Z,99344.44
2022-11-27T08:25:07.397Z,99342.06
2022-11-27T08:27:34.101Z,99336.19
2022-11-27T08:30:00.915Z,99335.34
2022-11-27T08:32:33.558Z,99340.22
2022-11-27T08:35:00.125Z,99341.19
2022-11-27T08:37:26.569Z,99337.66
2022-11-27T08:39:53.138Z,99332.28
2022-11-27T08:42:19.606Z,99319.88
2022-11-27T08:44:46.235Z,99318.25
2022-11-27T08:47:15.438Z,99329.03
2022-11-27T08:49:46.093Z,99312.50
2022-11-27T08:52:13.236Z,99311.41
2022-11-27T08:54:40.106Z,99303.44
2022-11-27T08:57:06.784Z,99301.06
2022-11-27T08:59:33.497Z,99304.09
2022-11-27T09:01:59.973Z,99291.44
2022-11-27T09:04:26.524Z,99288.69
2022-11-27T09:06:58.147Z,99285.66
2022-11-27T09:09:25.356Z,99274.59
2022-11-27T09:11:54.380Z,99269.69
2022-11-27T09:14:20.863Z,99271.69
2022-11-27T09:16:47.521Z,99268.59
2022-11-27T09:19:14.001Z,99270.47
2022-11-27T09:21:40.535Z,99261.69
2022-11-27T09:24:07.255Z,99267.50
2022-11-27T09:26:33.711Z,99262.94
2022-11-27T09:29:00.267Z,99271.50
2022-11-27T09:31:27.533Z,99283.53
2022-11-27T09:33:54.458Z,99283.38
2022-11-27T09:36:24.238Z,99274.00
2022-11-27T09:38:51.324Z,99269.25
2022-11-27T09:41:39.699Z,99273.44
2022-11-27T09:44:28.180Z,99275.56
2022-11-27T09:46:57.007Z,99265.94
2022-11-27T09:49:34.394Z,99267.50
2022-11-27T09:52:10.046Z,99258.81
2022-11-27T09:54:52.489Z,99266.22
2022-11-27T09:57:27.783Z,99260.53
2022-11-27T09:59:55.667Z,99259.94
2022-11-27T10:02:31.823Z,99250.41
2022-11-27T10:05:16.627Z,99247.03
2022-11-27T10:08:07.029Z,99243.06
2022-11-27T10:10:33.875Z,99235.72
2022-11-27T10:13:07.768Z,99232.56
2022-11-27T10:15:43.294Z,99215.66
2022-11-27T10:18:24.700Z,99210.03
2022-11-27T10:20:57.752Z,99208.78
2022-11-27T10:23:46.526Z,99197.94
2022-11-27T10:26:41.142Z,99189.34
2022-11-27T10:29:17.595Z,99185.72
2022-11-27T10:31:57.256Z,99189.47
2022-11-27T10:34:48.543Z,99191.34
2022-11-27T10:37:23.593Z,99185.56
2022-11-27T10:39:56.315Z,99186.19
2022-11-27T10:42:31.861Z,99179.84
2022-11-27T10:45:05.191Z,99180.81
2022-11-27T10:47:33.822Z,99175.06
2022-11-27T10:50:00.911Z,99173.09
2022-11-27T10:52:27.414Z,99157.97
2022-11-27T10:55:02.147Z,99152.34
2022-11-27T10:57:57.364Z,99144.66
2022-11-27T11:00:25.250Z,99144.06
2022-11-27T11:03:03.564Z,99134.72
2022-11-27T11:05:41.341Z,99133.06
2022-11-27T11:08:19.820Z,99120.09
2022-11-27T11:10:49.363Z,99121.97
2022-11-27T11:13:17.886Z,99123.28
2022-11-27T11:16:06.983Z,99118.88
2022-11-27T11:18:43.581Z,99122.91
2022-11-27T11:21:30.580Z,99114.78
2022-11-27T11:24:05.165Z,99110.72
2022-11-27T11:26:39.031Z,99103.34
2022-11-27T11:29:19.170Z,99094.50
2022-11-27T11:31:45.969Z,99092.03
2022-11-27T11:34:43.978Z,99081.75
2022-11-27T11:37:40.439Z,99086.66
2022-11-27T11:40:20.227Z,99073.53
2022-11-27T11:42:59.214Z,99072.19
2022-11-27T11:45:31.203Z,99071.59
2022-11-27T11:48:03.900Z,99072.13
2022-11-27T11:50:37.182Z,99083.16
2022-11-27T11:53:32.024Z,99088.25
2022-11-27T11:56:05.276Z,99094.94
2022-11-27T11:58:40.446Z,99081.63
2022-11-27T12:01:29.344Z,99071.75
2022-11-27T12:03:58.650Z,99055.69
2022-11-27T12:07:03.329Z,99052.09
2022-11-27T12:09:48.024Z,99052.78
2022-11-27T12:12:26.650Z,99046.50
2022-11-27T12:15:14.386Z,99044.38
2022-11-27T12:18:05.244Z,99045.84
2022-11-27T12:20:51.460Z,99037.31
2022-11-27T12:23:23.902Z,99028.28
2022-11-27T12:26:07.785Z,99026.78
2022-11-27T12:29:02.091Z,99033.50
2022-11-27T12:31:39.348Z,99030.03
2022-11-27T12:34:29.988Z,99017.38
2022-11-27T12:37:26.587Z,99000.53
2022-11-27T12:40:05.151Z,98997.06
2022-11-27T12:42:56.902Z,99000.00
2022-11-27T12:45:32.943Z,99000.03
2022-11-27T12:48:07.048Z,99002.31
2022-11-27T12:50:42.346Z,99008.84
2022-11-27T12:53:35.997Z,99000.50
2022-11-27T12:56:24.524Z,99003.63
2022-11-27T12:59:03.992Z,99002.47
2022-11-27T13:01:55.964Z,98999.84
2022-11-27T13:04:30.342Z,98988.81
2022-11-27T13:07:06.510Z,98985.06
2022-11-27T13:09:50.199Z,98982.94
2022-11-27T13:12:29.432Z,98979.66
2022-11-27T13:15:02.833Z,98966.47
2022-11-27T13:17:41.351Z,98975.53
2022-11-27T13:20:23.247Z,98976.84
2022-11-27T13:22:50.717Z,98972.94
2022-11-27T13:25:17.332Z,98964.22
2022-11-27T13:27:47.216Z,98960.09
2022-11-27T13:30:23.837Z,98950.09
2022-11-27T13:32:59.677Z,98937.13
2022-11-27T13:35:30.377Z,98924.47
2022-11-27T13:38:06.729Z,98912.25
2022-11-27T13:40:40.880Z,98902.75
2022-11-27T13:43:28.731Z,98900.59
2022-11-27T13:46:07.802Z,98893.09
2022-11-27T13:48:46.886Z,98883.53
2022-11-27T13:51:23.871Z,98874.53
2022-11-27T13:53:50.347Z,98869.44
2022-11-27T13:56:29.952Z,98872.09
2022-11-27T13:58:56.506Z,98868.34
2022-11-27T14:01:24.621Z,98872.41
2022-11-27T14:03:52.073Z,98858.81
2022-11-27T14:06:30.927Z,98857.16
2022-11-27T14:09:05.889Z,98849.41
2022-11-27T14:11:44.225Z,98850.25
2022-11-27T14:14:17.276Z,98849.44
2022-11-27T14:16:53.955Z,98848.41
2022-11-27T14:19:38.177Z,98849.25
2022-11-27T14:23:09.977Z,98847.44
2022-11-27T14:25:33.868Z,98837.72
2022-11-27T14:28:10.906Z,98840.81
2022-11-27T14:30:52.251Z,98832.31
2022-11-27T14:33:21.668Z,98835.44
2022-11-27T14:35:50.808Z,98822.97
2022-11-27T14:38:17.413Z,98828.75
2022-11-27T14:40:44.622Z,98815.81
2022-11-27T14:43:16.070Z,98818.13
2022-11-27T14:45:49.974Z,98817.25
2022-11-27T14:48:25.223Z,98812.84
2022-11-27T14:50:53.969Z,98817.63
2022-11-27T14:53:22.843Z,98811.19
2022-11-27T14:55:52.641Z,98813.00
2022-11-27T14:58:26.628Z,98815.16
2022-11-27T15:01:05.682Z,98808.94
2022-11-27T15:03:33.596Z,98816.63
2022-11-27T15:06:02.908Z,98823.22
2022-11-27T15:08:34.488Z,98818.59
2022-11-27T15:11:03.225Z,98812.41
2022-11-27T15:13:33.342Z,98806.66
2022-11-27T15:16:14.555Z,98799.78
2022-11-27T15:18:42.662Z,98793.03
2022-11-27T15:21:18.017Z,98785.97
2022-11-27T15:23:46.663Z,98775.31
2022-11-27T15:26:19.965Z,98773.34
2022-11-27T15:28:54.331Z,98772.22
2022-11-27T15:31:27.126Z,98762.34
2022-11-27T15:34:04.891Z,98773.66
2022-11-27T15:36:56.660Z,98776.97
2022-11-27T15:39:36.521Z,98769.56
2022-11-27T15:42:08.709Z,98773.84
2022-11-27T15:44:35.389Z,98772.53
2022-11-27T15:47:04.102Z,98772.50
2022-11-27T15:49:30.749Z,98758.06
2022-11-27T15:51:57.553Z,98774.44
2022-11-27T15:54:24.812Z,98762.81
2022-11-27T15:56:51.618Z,98762.66
2022-11-27T15:59:20.492Z,98762.31
2022-11-27T16:01:47.199Z,98761.53
2022-11-27T16:04:13.714Z,98764.34
2022-11-27T16:06:40.233Z,98758.06
2022-11-27T16:09:07.098Z,98758.56
2022-11-27T16:11:33.722Z,98755.59
2022-11-27T16:14:00.315Z,98762.00
2022-11-27T16:16:27.246Z,98758.66
2022-11-27T16:19:00.765Z,98766.53
2022-11-27T16:21:30.777Z,98756.72
2022-11-27T16:24:00.288Z,98756.38
2022-11-27T16:26:28.033Z,98748.16
2022-11-27T16:28:54.582Z,98754.22
2022-11-27T16:31:22.031Z,98744.88
2022-11-27T16:33:48.748Z,98736.84
2022-11-27T16:36:21.578Z,98732.91
2022-11-27T16:38:48.698Z,98728.81
2022-11-27T16:41:17.601Z,98723.38
2022-11-27T16:43:47.103Z,98719.94
2022-11-27T16:46:23.664Z,98717.31
2022-11-27T16:48:50.646Z,98703.53
2022-11-27T16:51:21.733Z,98699.47
2022-11-27T16:53:50.978Z,98694.88
2022-11-27T16:56:20.300Z,98696.88
2022-11-27T16:58:48.605Z,98692.56
2022-11-27T17:01:22.133Z,98689.97
2022-11-27T17:03:50.589Z,98695.06
2022-11-27T17:06:20.230Z,98688.81
2022-11-27T17:08:47.437Z,98681.91
2022-11-27T17:11:20.234Z,98674.19
2022-11-27T17:13:48.189Z,98674.38
2022-11-27T17:16:15.652Z,98681.94
2022-11-27T17:18:45.501Z,98674.22
2022-11-27T17:21:27.321Z,98664.59
2022-11-27T17:23:56.423Z,98659.16
2022-11-27T17:26:24.824Z,98656.72
2022-11-27T17:28:51.606Z,98655.88
2022-11-27T17:31:20.415Z,98658.84
2022-11-27T17:33:47.683Z,98655.41
2022-11-27T17:36:15.089Z,98639.31
2022-11-27T17:38:41.674Z,98633.25
2022-11-27T17:41:10.705Z,98626.59
2022-11-27T17:43:38.404Z,98621.00
2022-11-27T17:46:09.411Z,98620.19
2022-11-27T17:48:36.189Z,98611.03
2022-11-27T17:51:04.126Z,98611.19
2022-11-27T17:53:32.585Z,98606.78
2022-11-27T17:56:07.252Z,98598.25
2022-11-27T17:58:34.388Z,98602.16
2022-11-27T18:01:02.817Z,98597.59
2022-11-27T18:03:30.049Z,98599.09
2022-11-27T18:05:57.146Z,98592.03
2022-11-27T18:08:24.135Z,98598.09
2022-11-27T18:10:50.694Z,98593.34
2022-11-27T18:13:17.999Z,98586.31
2022-11-27T18:15:44.530Z,98582.50
2022-11-27T18:18:11.095Z,98583.00
2022-11-27T18:20:37.560Z,98573.03
2022-11-27T18:23:04.698Z,98565.47
2022-11-27T18:25:31.560Z,98559.41
2022-11-27T18:27:58.677Z,98555.97
2022-11-27T18:30:25.628Z,98549.41
2022-11-27T18:32:52.125Z,98543.31
2022-11-27T18:35:18.672Z,98538.09
2022-11-27T18:37:45.188Z,98532.84
2022-11-27T18:40:12.796Z,98536.28
2022-11-27T18:42:39.687Z,98538.41
2022-11-27T18:45:16.059Z,98544.00
2022-11-27T18:47:52.049Z,98539.22
2022-11-27T18:50:18.520Z,98549.09
2022-11-27T18:52:45.217Z,98558.75
2022-11-27T18:55:12.506Z,98546.31
2022-11-27T18:57:39.158Z,98538.97
2022-11-27T19:00:06.547Z,98540.56
2022-11-27T19:02:33.583Z,98533.19
2022-11-27T19:05:00.157Z,98529.78
2022-11-27T19:07:28.064Z,98520.75
2022-11-27T19:09:54.608Z,98520.78
2022-11-27T19:12:21.092Z,98516.19
2022-11-27T19:14:48.593Z,98517.47
2022-11-27T19:17:15.300Z,98510.13
2022-11-27T19:19:54.177Z,98520.28
2022-11-27T19:22:21.445Z,98508.28
2022-11-27T19:24:49.243Z,98510.91
2022-11-27T19:27:15.832Z,98506.47
2022-11-27T19:29:42.545Z,98515.53
2022-11-27T19:32:09.408Z,98511.91
2022-11-27T19:34:36.245Z,98505.66
2022-11-27T19:37:02.717Z,98513.06
2022-11-27T19:39:29.228Z,98509.13
2022-11-27T19:41:57.692Z,98506.69
2022-11-27T19:44:24.273Z,98510.81
2022-11-27T19:46:50.821Z,98500.13
2022-11-27T19:49:18.666Z,98503.25
2022-11-27T19:51:45.899Z,98501.97
2022-11-27T19:54:16.885Z,98499.50
2022-11-27T19:56:43.525Z,98498.84
2022-11-27T19:59:12.244Z,98488.19
2022-11-27T20:01:40.707Z,98492.09
2022-11-27T20:04:09.365Z,98488.66
2022-11-27T20:06:35.929Z,98491.16
2022-11-27T20:09:04.723Z,98493.28
2022-11-27T20:11:35.606Z,98493.91
2022-11-27T20:14:05.173Z,98478.66
2022-11-27T20:16:34.553Z,98476.06
2022-11-27T20:19:02.242Z,98481.50
2022-11-27T20:21:28.709Z,98484.09
2022-11-27T20:23:57.108Z,98478.22
2022-11-27T20:26:26.495Z,98477.72
2022-11-27T20:28:54.399Z,98467.59
2022-11-27T20:31:29.418Z,98473.47
2022-11-27T20:33:58.247Z,98467.59
2022-11-27T20:36:25.331Z,98456.63
2022-11-27T20:38:55.415Z,98454.81
2022-11-27T20:41:23.752Z,98447.28
2022-11-27T20:43:54.613Z,98449.56
2022-11-27T20:46:21.457Z,98453.50
2022-11-27T20:48:50.463Z,98451.88
2022-11-27T20:51:20.028Z,98453.19
2022-11-27T20:53:48.387Z,98458.75
2022-11-27T20:56:17.009Z,98453.50
2022-11-27T20:58:45.168Z,98452.03
2022-11-27T21:01:17.827Z,98447.13
2022-11-27T21:03:46.173Z,98442.69
2022-11-27T21:06:14.200Z,98435.81
2022-11-27T21:08:40.979Z,98440.72
2022-11-27T21:11:29.619Z,98435.34
2022-11-27T21:14:09.484Z,98432.56
2022-11-27T21:16:41.787Z,98425.69
2022-11-27T21:19:14.188Z,98424.03
2022-11-27T21:21:40.676Z,98418.97
2022-11-27T21:24:07.569Z,98416.66
2022-11-27T21:26:35.038Z,98408.00
2022-11-27T21:29:03.319Z,98418.78
2022-11-27T21:31:37.066Z,98412.44
2022-11-27T21:34:05.704Z,98398.03
2022-11-27T21:36:36.054Z,98404.06
2022-11-27T21:39:07.041Z,98394.09
2022-11-27T21:41:34.787Z,98405.88
2022-11-27T21:44:02.508Z,98395.59
2022-11-27T21:46:29.906Z,98408.81
2022-11-27T21:48:59.149Z,98395.56
2022-11-27T21:51:27.010Z,98399.16
2022-11-27T21:53:55.560Z,98403.06
2022-11-27T21:56:24.630Z,98395.38
2022-11-27T21:58:52.512Z,98402.94
2022-11-27T22:01:22.686Z,98393.13
2022-11-27T22:03:54.597Z,98383.31
2022-11-27T22:06:22.176Z,98374.63
2022-11-27T22:08:49.941Z,98366.78
2022-11-27T22:11:19.899Z,98361.53
2022-11-27T22:13:46.910Z,98352.03
2022-11-27T22:16:19.719Z,98358.13
2022-11-27T22:18:47.580Z,98351.88
2022-11-27T22:21:14.904Z,98350.72
2022-11-27T22:23:42.834Z,98346.34
2022-11-27T22:26:16.377Z,98345.50
2022-11-27T22:28:43.431Z,98339.31
2022-11-27T22:31:19.609Z,98335.53
2022-11-27T22:33:47.062Z,98336.69
2022-11-27T22:36:15.004Z,98334.91
2022-11-27T22:38:42.440Z,98334.72
2022-11-27T22:41:09.570Z,98334.22
2022-11-27T22:43:37.204Z,98334.09
2022-11-27T22:46:05.715Z,98327.88
2022-11-27T22:48:32.835Z,98324.44
2022-11-27T22:50:59.748Z,98323.75
2022-11-27T22:53:26.437Z,98319.19
2022-11-27T22:55:52.946Z,98318.22
2022-11-27T22:58:19.585Z,98332.09
2022-11-27T23:00:46.450Z,98318.03
2022-11-27T23:03:12.994Z,98323.28
2022-11-27T23:05:44.222Z,98323.63
2022-11-27T23:08:10.788Z,98315.59
2022-11-27T23:10:38.932Z,98307.44
2022-11-27T23:13:06.134Z,98314.78
2022-11-27T23:15:33.171Z,98304.00
2022-11-27T23:17:59.674Z,98300.56
2022-11-27T23:20:26.169Z,98299.91
2022-11-27T23:22:52.829Z,98304.31
2022-11-27T23:25:19.297Z,98297.09
2022-11-27T23:27:47.884Z,98298.41
2022-11-27T23:30:15.590Z,98292.19
2022-11-27T23:32:44.056Z,98298.59
2022-11-27T23:35:11.384Z,98300.19
2022-11-27T23:37:37.854Z,98292.22
2022-11-27T23:40:05.233Z,98294.16
2022-11-27T23:42:34.258Z,98297.09
2022-11-27T23:45:00.882Z,98292.88
2022-11-27T23:47:27.646Z,98289.25
2022-11-27T23:49:54.299Z,98284.22
2022-11-27T23:52:20.764Z,98288.63
2022-11-27T23:54:47.290Z,98292.22
2022-11-27T23:57:13.871Z,98289.59
2022-11-27T23:59:40.341Z,98286.81
